Time;durP1;ratioP1;P1;durP2;ratioP2;P2;SDS_P1;SDS_P2;PMS_P1;PMS_P2;Temp;Humidity;BMP_temperature;BMP_pressure;BME280_temperature;BME280_humidity;BME280_pressure;Samples;Min_cycle;Max_cycle;Signal;HPM_P1;HPM_P2
2023/08/26 00:01:26;;;;;;;2.07;1.87;;;;;;;;;;4965098;28;58471;-74
2023/08/26 00:03:51;;;;;;;2.00;1.90;;;;;;;;;;4967456;28;58411;-74
2023/08/26 00:06:16;;;;;;;1.67;1.57;;;;;;;;;;4963066;28;58946;-74
2023/08/26 00:08:42;;;;;;;1.67;1.57;;;;;;;;;;4966968;28;58771;-74
2023/08/26 00:11:07;;;;;;;2.15;1.95;;;;;;;;;;4968845;28;58445;-74
2023/08/26 00:13:32;;;;;;;1.85;1.58;;;;;;;;;;4967705;28;61118;-71
2023/08/26 00:15:57;;;;;;;1.97;1.87;;;;;;;;;;4962733;28;58429;-71
2023/08/26 00:18:22;;;;;;;1.65;1.55;;;;;;;;;;4965365;28;58470;-72
2023/08/26 00:20:47;;;;;;;1.77;1.63;;;;;;;;;;4965657;28;59433;-71
2023/08/26 00:23:12;;;;;;;1.75;1.65;;;;;;;;;;4965675;28;58480;-72
2023/08/26 00:25:37;;;;;;;1.55;1.45;;;;;;;;;;4967895;28;58649;-72
2023/08/26 00:28:03;;;;;;;1.80;1.70;;;;;;;;;;4967415;28;59159;-72
2023/08/26 00:30:28;;;;;;;2.00;1.83;;;;;;;;;;4966839;28;58406;-71
2023/08/26 00:32:53;;;;;;;1.58;1.48;;;;;;;;;;4965312;28;59241;-72
2023/08/26 00:35:18;;;;;;;1.70;1.60;;;;;;;;;;4966026;28;58400;-72
2023/08/26 00:37:43;;;;;;;1.00;1.00;;;;;;;;;;4967183;28;58482;-71
2023/08/26 00:40:09;;;;;;;1.60;1.50;;;;;;;;;;4966957;28;58549;-72
2023/08/26 00:42:35;;;;;;;1.73;1.63;;;;;;;;;;4966412;28;58338;-71
2023/08/26 00:45:00;;;;;;;2.33;2.03;;;;;;;;;;4964081;28;59427;-72
2023/08/26 00:47:25;;;;;;;2.00;1.90;;;;;;;;;;4962893;28;59060;-73
2023/08/26 00:49:50;;;;;;;1.57;1.47;;;;;;;;;;4964887;28;58296;-72
2023/08/26 00:52:16;;;;;;;1.40;1.30;;;;;;;;;;4965994;28;59441;-73
2023/08/26 00:54:41;;;;;;;2.17;2.08;;;;;;;;;;4964455;28;59042;-71
2023/08/26 00:57:06;;;;;;;1.70;1.60;;;;;;;;;;4961714;28;58726;-72
2023/08/26 00:59:31;;;;;;;1.90;1.80;;;;;;;;;;4963650;28;59251;-72
2023/08/26 01:01:57;;;;;;;1.67;1.58;;;;;;;;;;4966469;28;59036;-72
2023/08/26 01:04:22;;;;;;;2.00;1.57;;;;;;;;;;4964621;28;60057;-72
2023/08/26 01:06:47;;;;;;;1.67;1.57;;;;;;;;;;4965247;28;58753;-72
2023/08/26 01:09:12;;;;;;;1.40;1.30;;;;;;;;;;4964646;28;58305;-74
2023/08/26 01:12:00;;;;;;;1.73;1.63;;;;;;;;;;4962489;28;58446;-73
2023/08/26 01:14:34;;;;;;;1.50;1.40;;;;;;;;;;4964643;28;58894;-72
2023/08/26 01:17:00;;;;;;;2.15;1.67;;;;;;;;;;4969605;28;58469;-72
2023/08/26 01:19:31;;;;;;;1.48;1.40;;;;;;;;;;4968026;28;59513;-73
2023/08/26 01:21:58;;;;;;;1.50;1.40;;;;;;;;;;4968492;28;60003;-74
2023/08/26 01:24:24;;;;;;;1.60;1.50;;;;;;;;;;4968554;28;58338;-74
2023/08/26 01:26:49;;;;;;;2.08;1.98;;;;;;;;;;4968295;28;58965;-74
2023/08/26 01:29:15;;;;;;;1.63;1.52;;;;;;;;;;4966445;28;58476;-74
2023/08/26 01:31:41;;;;;;;1.70;1.60;;;;;;;;;;4970945;28;58743;-74
2023/08/26 01:34:10;;;;;;;1.45;1.42;;;;;;;;;;4966718;28;59077;-74
2023/08/26 01:36:40;;;;;;;1.85;1.75;;;;;;;;;;4966001;28;58467;-74
2023/08/26 01:39:06;;;;;;;1.98;1.88;;;;;;;;;;4967800;28;60278;-74
2023/08/26 01:41:31;;;;;;;2.60;1.57;;;;;;;;;;4964372;28;58917;-74
2023/08/26 01:43:57;;;;;;;1.67;1.58;;;;;;;;;;4971133;28;58512;-74
2023/08/26 01:46:33;;;;;;;1.00;1.00;;;;;;;;;;4969668;28;58627;-74
2023/08/26 01:48:58;;;;;;;1.80;1.55;;;;;;;;;;4970423;28;59653;-74
2023/08/26 01:51:23;;;;;;;1.63;1.53;;;;;;;;;;4971158;28;59562;-74
2023/08/26 01:53:48;;;;;;;1.90;1.33;;;;;;;;;;4969917;28;59904;-74
2023/08/26 01:56:14;;;;;;;1.50;1.40;;;;;;;;;;4955231;28;58532;-74
2023/08/26 01:58:39;;;;;;;1.53;1.43;;;;;;;;;;4969935;28;59279;-74
2023/08/26 02:01:05;;;;;;;1.60;1.50;;;;;;;;;;4966683;28;58670;-74
2023/08/26 02:03:30;;;;;;;1.98;1.67;;;;;;;;;;4971889;28;58469;-74
2023/08/26 02:05:56;;;;;;;1.90;1.58;;;;;;;;;;4971729;28;59432;-74
2023/08/26 02:08:21;;;;;;;1.60;1.50;;;;;;;;;;4957624;28;58573;-74
2023/08/26 02:10:52;;;;;;;1.95;1.85;;;;;;;;;;4972369;28;59193;-74
2023/08/26 02:13:17;;;;;;;1.73;1.63;;;;;;;;;;4968972;28;59446;-74
2023/08/26 02:15:42;;;;;;;1.63;1.53;;;;;;;;;;4970311;28;58380;-74
2023/08/26 02:18:08;;;;;;;1.40;1.30;;;;;;;;;;4972511;28;59125;-74
2023/08/26 02:20:33;;;;;;;1.90;1.80;;;;;;;;;;4969100;28;59066;-74
2023/08/26 02:22:58;;;;;;;1.15;1.15;;;;;;;;;;4972220;28;58424;-74
2023/08/26 02:25:23;;;;;;;1.60;1.50;;;;;;;;;;4970477;28;59379;-74
2023/08/26 02:27:48;;;;;;;1.37;1.27;;;;;;;;;;4972177;28;58787;-74
2023/08/26 02:30:14;;;;;;;1.58;1.48;;;;;;;;;;4970909;28;59051;-75
2023/08/26 02:32:39;;;;;;;1.70;1.60;;;;;;;;;;4970393;28;58784;-74
2023/08/26 02:35:04;;;;;;;1.38;1.30;;;;;;;;;;4971288;28;58255;-74
2023/08/26 02:37:29;;;;;;;1.73;1.63;;;;;;;;;;4971683;28;58568;-74
2023/08/26 02:39:55;;;;;;;1.48;1.38;;;;;;;;;;4971771;28;58210;-74
2023/08/26 02:42:20;;;;;;;1.53;1.43;;;;;;;;;;4970472;28;58418;-71
2023/08/26 02:44:45;;;;;;;1.40;1.30;;;;;;;;;;4950696;28;59545;-72
2023/08/26 02:47:10;;;;;;;1.83;1.73;;;;;;;;;;4970852;28;59846;-71
2023/08/26 02:49:35;;;;;;;1.50;1.40;;;;;;;;;;4971871;28;58389;-71
2023/08/26 02:52:01;;;;;;;1.10;1.10;;;;;;;;;;4970848;28;58671;-71
2023/08/26 02:54:26;;;;;;;1.85;1.75;;;;;;;;;;4971965;28;58896;-71
2023/08/26 02:56:51;;;;;;;1.60;1.50;;;;;;;;;;4969011;28;59543;-72
2023/08/26 02:59:16;;;;;;;1.65;1.55;;;;;;;;;;4967368;28;58727;-71
2023/08/26 03:01:41;;;;;;;1.60;1.50;;;;;;;;;;4972925;28;58407;-73
2023/08/26 03:04:06;;;;;;;1.30;1.30;;;;;;;;;;4970803;28;58494;-71
2023/08/26 03:06:32;;;;;;;1.67;1.57;;;;;;;;;;4969041;28;58817;-72
2023/08/26 03:08:57;;;;;;;1.30;1.20;;;;;;;;;;4973460;28;58409;-72
2023/08/26 03:11:22;;;;;;;1.20;1.10;;;;;;;;;;4969318;28;58883;-71
2023/08/26 03:13:49;;;;;;;2.10;2.00;;;;;;;;;;4972156;28;58404;-71
2023/08/26 03:16:14;;;;;;;1.50;1.40;;;;;;;;;;4970550;28;59598;-72
2023/08/26 03:18:39;;;;;;;1.20;1.10;;;;;;;;;;4974786;28;58385;-72
2023/08/26 03:21:05;;;;;;;1.95;1.85;;;;;;;;;;4969543;28;58773;-73
2023/08/26 03:23:30;;;;;;;1.73;1.63;;;;;;;;;;4954071;28;58895;-71
2023/08/26 03:25:55;;;;;;;2.00;1.90;;;;;;;;;;4969605;28;59334;-72
2023/08/26 03:28:21;;;;;;;1.30;1.20;;;;;;;;;;4970949;28;58486;-71
2023/08/26 03:30:46;;;;;;;1.60;1.50;;;;;;;;;;4971438;28;59537;-72
2023/08/26 03:33:11;;;;;;;2.13;1.95;;;;;;;;;;4970120;28;58444;-71
2023/08/26 03:35:40;;;;;;;1.40;1.30;;;;;;;;;;4971209;28;59313;-71
2023/08/26 03:38:05;;;;;;;1.98;1.88;;;;;;;;;;4970903;28;60148;-72
2023/08/26 03:40:30;;;;;;;1.83;1.73;;;;;;;;;;4969723;28;58508;-72
2023/08/26 03:42:55;;;;;;;1.58;1.48;;;;;;;;;;4974019;28;58428;-71
2023/08/26 03:45:20;;;;;;;1.50;1.40;;;;;;;;;;4968227;28;58943;-71
2023/08/26 03:47:46;;;;;;;1.70;1.60;;;;;;;;;;4974630;28;58481;-71
2023/08/26 03:50:11;;;;;;;1.87;1.77;;;;;;;;;;4970508;28;60535;-71
2023/08/26 03:52:36;;;;;;;1.50;1.40;;;;;;;;;;4966455;28;58499;-74
2023/08/26 03:55:02;;;;;;;1.30;1.20;;;;;;;;;;4971409;28;58522;-74
2023/08/26 03:57:27;;;;;;;0.90;0.90;;;;;;;;;;4964125;28;58808;-74
2023/08/26 03:59:52;;;;;;;1.77;1.67;;;;;;;;;;4969633;28;58463;-74
2023/08/26 04:02:17;;;;;;;1.42;1.33;;;;;;;;;;4955040;28;60627;-74
2023/08/26 04:04:43;;;;;;;1.70;1.60;;;;;;;;;;4970714;28;58492;-75
2023/08/26 04:07:08;;;;;;;1.90;1.80;;;;;;;;;;4970522;28;58752;-74
2023/08/26 04:09:33;;;;;;;2.03;1.40;;;;;;;;;;4967357;28;58390;-74
2023/08/26 04:11:58;;;;;;;1.67;1.57;;;;;;;;;;4968673;28;58711;-74
2023/08/26 04:14:23;;;;;;;1.10;1.10;;;;;;;;;;4968675;28;58058;-74
2023/08/26 04:16:48;;;;;;;1.47;1.37;;;;;;;;;;4966297;28;58332;-74
2023/08/26 04:19:14;;;;;;;1.80;1.70;;;;;;;;;;4969347;28;58516;-74
2023/08/26 04:21:39;;;;;;;2.07;1.97;;;;;;;;;;4969039;28;59768;-74
2023/08/26 04:24:04;;;;;;;1.77;1.67;;;;;;;;;;4970696;28;59339;-74
2023/08/26 04:26:30;;;;;;;1.40;1.30;;;;;;;;;;4950544;28;58478;-74
2023/08/26 04:28:55;;;;;;;1.20;1.10;;;;;;;;;;4970224;28;58466;-74
2023/08/26 04:31:20;;;;;;;1.75;1.65;;;;;;;;;;4967713;28;58383;-74
2023/08/26 04:33:45;;;;;;;1.40;1.30;;;;;;;;;;4967941;28;58529;-74
2023/08/26 04:36:10;;;;;;;1.20;1.20;;;;;;;;;;4966078;28;59201;-74
2023/08/26 04:38:35;;;;;;;1.35;1.25;;;;;;;;;;4970035;28;60363;-74
2023/08/26 04:41:01;;;;;;;1.10;1.10;;;;;;;;;;4969430;28;59772;-74
2023/08/26 04:43:26;;;;;;;1.10;1.10;;;;;;;;;;4970433;28;59104;-74
2023/08/26 04:45:52;;;;;;;1.60;1.50;;;;;;;;;;4954662;28;58376;-74
2023/08/26 04:48:18;;;;;;;1.38;1.27;;;;;;;;;;4952889;28;61242;-75
2023/08/26 04:50:43;;;;;;;1.23;1.13;;;;;;;;;;4966394;28;58143;-75
2023/08/26 04:53:08;;;;;;;1.77;1.67;;;;;;;;;;4952837;28;58505;-74
2023/08/26 04:55:33;;;;;;;1.33;1.23;;;;;;;;;;4969210;28;60563;-74
2023/08/26 04:57:58;;;;;;;1.40;1.30;;;;;;;;;;4971517;28;59120;-74
2023/08/26 05:00:24;;;;;;;1.53;1.43;;;;;;;;;;4967733;28;59504;-74
2023/08/26 05:02:49;;;;;;;1.10;1.10;;;;;;;;;;4970266;28;59029;-73
2023/08/26 05:05:14;;;;;;;1.50;1.40;;;;;;;;;;4961464;28;58764;-72
2023/08/26 05:07:40;;;;;;;1.92;1.83;;;;;;;;;;4969444;28;59652;-72
2023/08/26 05:10:05;;;;;;;1.37;1.27;;;;;;;;;;4964261;28;58875;-72
2023/08/26 05:12:30;;;;;;;1.02;0.95;;;;;;;;;;4965336;28;58440;-73
2023/08/26 05:14:55;;;;;;;1.38;1.27;;;;;;;;;;4965393;28;59352;-72
2023/08/26 05:17:21;;;;;;;1.45;1.35;;;;;;;;;;4953562;28;59195;-71
2023/08/26 05:19:46;;;;;;;1.30;1.20;;;;;;;;;;4970615;28;58595;-71
2023/08/26 05:22:11;;;;;;;1.10;1.00;;;;;;;;;;4967497;28;58554;-72
2023/08/26 05:24:36;;;;;;;1.10;1.10;;;;;;;;;;4966373;28;58591;-72
2023/08/26 05:27:03;;;;;;;1.20;1.10;;;;;;;;;;4968951;28;60224;-72
2023/08/26 05:29:28;;;;;;;1.58;1.10;;;;;;;;;;4965513;28;58625;-71
2023/08/26 05:31:53;;;;;;;1.57;1.47;;;;;;;;;;4968948;28;58653;-73
2023/08/26 05:34:18;;;;;;;1.63;1.52;;;;;;;;;;4964522;28;58591;-73
2023/08/26 05:36:43;;;;;;;1.53;1.37;;;;;;;;;;4969194;28;59288;-72
2023/08/26 05:39:08;;;;;;;1.47;1.37;;;;;;;;;;4968632;28;58549;-71
2023/08/26 05:41:33;;;;;;;1.00;1.00;;;;;;;;;;4969042;28;58578;-72
2023/08/26 05:43:59;;;;;;;0.88;0.88;;;;;;;;;;4964412;28;58562;-71
2023/08/26 05:46:24;;;;;;;1.00;1.00;;;;;;;;;;4969081;28;59156;-71
2023/08/26 05:48:49;;;;;;;0.90;0.90;;;;;;;;;;4969828;28;59331;-73
2023/08/26 05:51:14;;;;;;;1.05;1.00;;;;;;;;;;4968442;28;58459;-72
2023/08/26 05:53:39;;;;;;;1.43;1.33;;;;;;;;;;4966688;28;58550;-72
2023/08/26 05:56:04;;;;;;;1.23;1.23;;;;;;;;;;4966599;28;60033;-71
2023/08/26 05:58:30;;;;;;;1.23;1.13;;;;;;;;;;4968813;28;58757;-72
2023/08/26 06:00:55;;;;;;;1.30;1.20;;;;;;;;;;4967662;28;59180;-71
2023/08/26 06:03:20;;;;;;;1.33;1.23;;;;;;;;;;4963048;28;59668;-72
2023/08/26 06:05:46;;;;;;;1.03;1.03;;;;;;;;;;4940130;28;61264;-72
2023/08/26 06:08:11;;;;;;;1.20;1.10;;;;;;;;;;4965130;28;58477;-70
2023/08/26 06:10:36;;;;;;;1.90;1.33;;;;;;;;;;4962372;28;58604;-72
2023/08/26 06:13:01;;;;;;;1.45;1.35;;;;;;;;;;4967148;28;60824;-74
2023/08/26 06:15:26;;;;;;;3.33;2.90;;;;;;;;;;4965295;28;58460;-74
2023/08/26 06:17:51;;;;;;;3.07;2.73;;;;;;;;;;4964359;28;58547;-74
2023/08/26 06:20:17;;;;;;;4.63;2.22;;;;;;;;;;4965746;28;58695;-74
2023/08/26 06:22:42;;;;;;;3.70;1.60;;;;;;;;;;4966812;28;59404;-74
2023/08/26 06:25:08;;;;;;;1.80;1.60;;;;;;;;;;4966520;28;60753;-74
2023/08/26 06:27:33;;;;;;;2.63;2.28;;;;;;;;;;4962111;28;59019;-74
2023/08/26 06:30:02;;;;;;;2.90;2.23;;;;;;;;;;4966387;28;58463;-74
2023/08/26 06:32:27;;;;;;;1.90;1.80;;;;;;;;;;4966968;28;60831;-74
2023/08/26 06:34:53;;;;;;;2.20;2.00;;;;;;;;;;4965236;28;59744;-74
2023/08/26 06:37:18;;;;;;;1.45;1.35;;;;;;;;;;4967478;28;58353;-74
2023/08/26 06:39:43;;;;;;;1.57;1.47;;;;;;;;;;4965908;28;58395;-74
2023/08/26 06:42:08;;;;;;;3.63;1.70;;;;;;;;;;4968788;28;58458;-74
2023/08/26 06:44:33;;;;;;;2.23;1.90;;;;;;;;;;4953463;28;58550;-74
2023/08/26 06:46:59;;;;;;;7.82;2.65;;;;;;;;;;4973710;28;58411;-73
2023/08/26 06:49:24;;;;;;;1.95;1.67;;;;;;;;;;4969741;28;58534;-72
2023/08/26 06:51:50;;;;;;;6.10;2.00;;;;;;;;;;4968221;28;59849;-74
2023/08/26 06:54:15;;;;;;;6.10;1.93;;;;;;;;;;4970302;28;59561;-74
2023/08/26 06:56:40;;;;;;;4.40;2.90;;;;;;;;;;4969615;28;58580;-72
2023/08/26 06:59:05;;;;;;;3.15;2.13;;;;;;;;;;4971927;28;60692;-73
2023/08/26 07:01:32;;;;;;;3.13;2.33;;;;;;;;;;4971084;28;58258;-73
2023/08/26 07:04:04;;;;;;;3.40;2.57;;;;;;;;;;4972683;28;58530;-72
2023/08/26 07:06:30;;;;;;;5.30;1.95;;;;;;;;;;4953562;28;60286;-71
2023/08/26 07:08:55;;;;;;;3.25;1.92;;;;;;;;;;4974636;28;59133;-73
2023/08/26 07:11:21;;;;;;;3.97;2.00;;;;;;;;;;4970219;28;59415;-71
2023/08/26 07:13:46;;;;;;;4.33;1.90;;;;;;;;;;4971580;28;58700;-71
2023/08/26 07:16:11;;;;;;;3.75;1.92;;;;;;;;;;4969018;28;59297;-73
2023/08/26 07:18:36;;;;;;;2.83;2.10;;;;;;;;;;4966829;28;58552;-74
2023/08/26 07:21:01;;;;;;;4.17;2.40;;;;;;;;;;4972794;28;59241;-76
2023/08/26 07:23:27;;;;;;;3.25;2.25;;;;;;;;;;4974326;28;58562;-77
2023/08/26 07:25:52;;;;;;;3.00;1.88;;;;;;;;;;4955104;28;59435;-77
2023/08/26 07:28:17;;;;;;;3.10;1.90;;;;;;;;;;4973176;28;58789;-75
2023/08/26 07:30:42;;;;;;;3.33;2.30;;;;;;;;;;4974192;28;59428;-77
2023/08/26 07:33:07;;;;;;;1.70;1.60;;;;;;;;;;4967345;28;58821;-78
2023/08/26 07:35:32;;;;;;;4.05;2.40;;;;;;;;;;4966655;28;58786;-78
2023/08/26 07:37:57;;;;;;;2.70;2.25;;;;;;;;;;4965969;28;59715;-78
2023/08/26 07:40:23;;;;;;;3.70;1.60;;;;;;;;;;4965877;28;58279;-78
2023/08/26 07:42:48;;;;;;;4.87;2.20;;;;;;;;;;4968314;28;58368;-78
2023/08/26 07:45:13;;;;;;;2.60;2.27;;;;;;;;;;4967811;28;60293;-78
2023/08/26 07:47:42;;;;;;;4.17;2.77;;;;;;;;;;4968581;28;59672;-78
2023/08/26 07:50:07;;;;;;;3.15;2.60;;;;;;;;;;4973419;28;58308;-79
2023/08/26 07:52:32;;;;;;;3.50;2.03;;;;;;;;;;4970596;28;58841;-78
2023/08/26 07:54:57;;;;;;;2.17;1.98;;;;;;;;;;4969742;28;58420;-78
2023/08/26 07:57:23;;;;;;;7.13;2.00;;;;;;;;;;4969826;28;58956;-78
2023/08/26 07:59:48;;;;;;;2.87;2.20;;;;;;;;;;4971077;28;58729;-78
2023/08/26 08:02:13;;;;;;;5.47;2.50;;;;;;;;;;4971572;28;58515;-77
2023/08/26 08:04:38;;;;;;;5.07;3.07;;;;;;;;;;4970229;28;58779;-78
2023/08/26 08:07:03;;;;;;;5.85;2.78;;;;;;;;;;4964186;28;59582;-78
2023/08/26 08:09:28;;;;;;;2.53;2.27;;;;;;;;;;4970305;28;58596;-77
2023/08/26 08:11:54;;;;;;;2.70;2.50;;;;;;;;;;4970397;28;60260;-77
2023/08/26 08:14:19;;;;;;;2.80;2.60;;;;;;;;;;4964241;28;58338;-76
2023/08/26 08:16:44;;;;;;;4.72;2.65;;;;;;;;;;4971862;28;58800;-76
2023/08/26 08:19:09;;;;;;;2.60;2.40;;;;;;;;;;4969746;28;58908;-78
2023/08/26 08:21:34;;;;;;;3.53;2.72;;;;;;;;;;4968407;28;58414;-76
2023/08/26 08:24:00;;;;;;;4.40;1.90;;;;;;;;;;4968778;28;59154;-80
2023/08/26 08:26:25;;;;;;;3.05;2.00;;;;;;;;;;4969099;28;58082;-80
2023/08/26 08:28:50;;;;;;;4.97;3.40;;;;;;;;;;4972047;28;58377;-79
2023/08/26 08:31:16;;;;;;;6.65;2.25;;;;;;;;;;4973129;28;59639;-76
2023/08/26 08:33:41;;;;;;;6.47;3.37;;;;;;;;;;4970121;28;58296;-76
2023/08/26 08:36:06;;;;;;;6.70;3.17;;;;;;;;;;4972031;28;59210;-75
2023/08/26 08:38:31;;;;;;;4.67;1.97;;;;;;;;;;4964891;28;58444;-75
2023/08/26 08:40:56;;;;;;;4.50;2.50;;;;;;;;;;4972954;28;58505;-75
2023/08/26 08:43:22;;;;;;;3.20;1.93;;;;;;;;;;4970218;28;58684;-75
2023/08/26 08:45:49;;;;;;;4.70;1.90;;;;;;;;;;4968971;28;59293;-75
2023/08/26 08:48:15;;;;;;;7.40;2.07;;;;;;;;;;4964793;28;58508;-76
2023/08/26 08:50:41;;;;;;;2.28;1.60;;;;;;;;;;4971392;28;60457;-75
2023/08/26 08:53:07;;;;;;;7.82;2.25;;;;;;;;;;4972116;28;58943;-75
2023/08/26 08:55:33;;;;;;;2.33;1.40;;;;;;;;;;4970896;28;58906;-75
2023/08/26 08:57:59;;;;;;;1.37;1.27;;;;;;;;;;4969953;28;58528;-75
2023/08/26 09:00:25;;;;;;;1.88;1.00;;;;;;;;;;4970071;28;58514;-75
2023/08/26 09:02:51;;;;;;;3.08;1.02;;;;;;;;;;4970373;28;59379;-75
2023/08/26 09:05:17;;;;;;;2.83;0.80;;;;;;;;;;4969881;28;59394;-75
2023/08/26 09:07:42;;;;;;;3.05;0.93;;;;;;;;;;4973893;28;58373;-75
2023/08/26 09:10:11;;;;;;;1.73;1.20;;;;;;;;;;4970439;28;58395;-75
2023/08/26 09:12:36;;;;;;;2.10;0.77;;;;;;;;;;4966198;28;59062;-75
2023/08/26 09:15:03;;;;;;;1.27;1.17;;;;;;;;;;4968855;28;58392;-75
2023/08/26 09:17:28;;;;;;;1.90;1.17;;;;;;;;;;4968797;28;58907;-75
2023/08/26 09:19:55;;;;;;;1.75;1.10;;;;;;;;;;4971556;28;58438;-76
2023/08/26 09:22:28;;;;;;;2.38;1.45;;;;;;;;;;4972686;28;59248;-75
2023/08/26 09:25:03;;;;;;;2.88;1.50;;;;;;;;;;4967354;28;60063;-75
2023/08/26 09:27:28;;;;;;;2.97;2.00;;;;;;;;;;4972955;28;58545;-76
2023/08/26 09:29:54;;;;;;;2.42;2.08;;;;;;;;;;4971881;28;58830;-76
2023/08/26 09:32:36;;;;;;;1.90;1.27;;;;;;;;;;4969871;28;58875;-76
2023/08/26 09:35:08;;;;;;;2.42;1.73;;;;;;;;;;4975978;28;58448;-76
2023/08/26 09:37:33;;;;;;;2.10;1.83;;;;;;;;;;4969983;28;63157;-76
2023/08/26 09:39:58;;;;;;;1.67;1.43;;;;;;;;;;4968904;28;58497;-75
2023/08/26 09:42:24;;;;;;;2.35;1.50;;;;;;;;;;4973230;28;58219;-79
2023/08/26 09:44:49;;;;;;;2.75;2.28;;;;;;;;;;4969754;28;58440;-80
2023/08/26 09:47:14;;;;;;;2.80;2.20;;;;;;;;;;4967792;28;58217;-79
2023/08/26 09:49:49;;;;;;;2.00;1.83;;;;;;;;;;4959842;28;59908;-80
2023/08/26 09:52:15;;;;;;;1.83;1.73;;;;;;;;;;4966372;28;59143;-79
2023/08/26 09:54:42;;;;;;;2.42;1.88;;;;;;;;;;4970550;28;58434;-79
2023/08/26 09:57:07;;;;;;;2.17;1.97;;;;;;;;;;4972911;28;58432;-80
2023/08/26 09:59:32;;;;;;;3.63;1.40;;;;;;;;;;4969422;28;58781;-80
2023/08/26 10:02:01;;;;;;;2.10;1.90;;;;;;;;;;4971803;28;58326;-80
2023/08/26 10:04:27;;;;;;;2.47;2.30;;;;;;;;;;4971891;28;58948;-80
2023/08/26 10:06:56;;;;;;;4.85;3.22;;;;;;;;;;4968981;28;58453;-81
2023/08/26 10:09:43;;;;;;;3.05;1.98;;;;;;;;;;4969646;28;58473;-80
2023/08/26 10:12:29;;;;;;;3.27;2.60;;;;;;;;;;4966644;28;59006;-80
2023/08/26 10:14:54;;;;;;;8.40;4.28;;;;;;;;;;4968730;28;58493;-80
2023/08/26 10:17:20;;;;;;;4.60;2.92;;;;;;;;;;4977986;28;58722;-81
2023/08/26 10:19:46;;;;;;;5.00;3.10;;;;;;;;;;4977067;28;58592;-79
2023/08/26 10:22:12;;;;;;;3.05;2.45;;;;;;;;;;4977162;28;58327;-80
2023/08/26 10:24:37;;;;;;;4.45;2.42;;;;;;;;;;4973012;28;58675;-80
2023/08/26 10:27:03;;;;;;;4.97;3.37;;;;;;;;;;4975389;28;58269;-80
2023/08/26 10:29:29;;;;;;;2.38;2.17;;;;;;;;;;4974651;28;58359;-79
2023/08/26 10:31:54;;;;;;;3.05;2.65;;;;;;;;;;4975934;28;58641;-80
2023/08/26 10:34:19;;;;;;;3.33;2.53;;;;;;;;;;4975707;28;58326;-79
2023/08/26 10:36:48;;;;;;;2.17;2.00;;;;;;;;;;4970561;28;59585;-80
2023/08/26 10:39:15;;;;;;;3.08;2.40;;;;;;;;;;4968595;28;58237;-80
2023/08/26 10:42:00;;;;;;;2.83;2.27;;;;;;;;;;4970119;28;58580;-80
2023/08/26 10:44:36;;;;;;;3.30;2.78;;;;;;;;;;4967792;28;60149;-79
2023/08/26 10:47:01;;;;;;;3.38;2.10;;;;;;;;;;4971785;28;58525;-80
2023/08/26 10:49:29;;;;;;;3.70;2.22;;;;;;;;;;4965576;28;59245;-80
2023/08/26 10:52:08;;;;;;;6.35;2.15;;;;;;;;;;4968215;28;59362;-72
2023/08/26 10:54:34;;;;;;;4.38;1.60;;;;;;;;;;4971888;28;58477;-74
2023/08/26 10:57:02;;;;;;;1.88;1.60;;;;;;;;;;4970768;28;59440;-72
2023/08/26 10:59:38;;;;;;;2.03;1.88;;;;;;;;;;4972337;28;58609;-71
2023/08/26 11:02:07;;;;;;;3.50;1.60;;;;;;;;;;4968970;28;58528;-72
2023/08/26 11:04:32;;;;;;;5.82;2.25;;;;;;;;;;4968992;28;63142;-72
2023/08/26 11:06:58;;;;;;;2.25;1.70;;;;;;;;;;4971295;28;58532;-73
2023/08/26 11:09:23;;;;;;;4.20;1.75;;;;;;;;;;4974693;28;61044;-74
2023/08/26 11:11:49;;;;;;;2.00;1.60;;;;;;;;;;4968227;28;59353;-72
2023/08/26 11:14:14;;;;;;;3.53;2.07;;;;;;;;;;4967549;28;58471;-71
2023/08/26 11:16:39;;;;;;;1.50;1.40;;;;;;;;;;4972648;28;59458;-72
2023/08/26 11:19:05;;;;;;;3.75;1.63;;;;;;;;;;4975884;28;60064;-71
2023/08/26 11:21:34;;;;;;;5.63;1.52;;;;;;;;;;4973700;28;58375;-73
2023/08/26 11:24:00;;;;;;;4.07;2.42;;;;;;;;;;4964449;28;59566;-71
2023/08/26 11:26:25;;;;;;;3.10;1.20;;;;;;;;;;4972170;28;58510;-71
2023/08/26 11:28:50;;;;;;;1.88;1.20;;;;;;;;;;4974729;28;58965;-70
2023/08/26 11:31:16;;;;;;;3.47;1.58;;;;;;;;;;4972750;28;58529;-70
2023/08/26 11:33:41;;;;;;;5.00;2.00;;;;;;;;;;4974214;28;58605;-71
2023/08/26 11:36:07;;;;;;;7.27;2.47;;;;;;;;;;4976780;28;59533;-71
2023/08/26 11:38:35;;;;;;;4.35;2.28;;;;;;;;;;4973003;28;58432;-71
2023/08/26 11:41:07;;;;;;;4.72;1.67;;;;;;;;;;4975303;28;58482;-71
2023/08/26 11:43:34;;;;;;;3.83;2.67;;;;;;;;;;4972843;28;63564;-70
2023/08/26 11:45:59;;;;;;;6.68;2.38;;;;;;;;;;4974037;28;58642;-71
2023/08/26 11:48:24;;;;;;;7.13;2.80;;;;;;;;;;4959707;28;58551;-71
2023/08/26 11:50:51;;;;;;;3.80;2.13;;;;;;;;;;4972534;28;58994;-71
2023/08/26 11:53:22;;;;;;;3.33;1.60;;;;;;;;;;4975247;28;58411;-71
2023/08/26 11:55:47;;;;;;;7.28;1.85;;;;;;;;;;4974086;28;58634;-71
2023/08/26 11:58:12;;;;;;;2.53;2.00;;;;;;;;;;4973670;28;59077;-71
2023/08/26 12:00:37;;;;;;;2.23;1.27;;;;;;;;;;4971601;28;58606;-71
2023/08/26 12:03:03;;;;;;;2.72;1.60;;;;;;;;;;4973585;28;59636;-71
2023/08/26 12:05:40;;;;;;;1.98;1.08;;;;;;;;;;4971464;28;59694;-71
2023/08/26 12:08:11;;;;;;;2.65;1.88;;;;;;;;;;4971309;28;58435;-71
2023/08/26 12:10:36;;;;;;;2.15;1.20;;;;;;;;;;4972818;28;64040;-71
2023/08/26 12:13:05;;;;;;;1.90;1.20;;;;;;;;;;4972806;28;58437;-71
2023/08/26 12:15:30;;;;;;;2.60;0.85;;;;;;;;;;4971808;28;60503;-71
2023/08/26 12:17:55;;;;;;;1.98;0.88;;;;;;;;;;4970171;28;60326;-71
2023/08/26 12:20:30;;;;;;;2.35;1.08;;;;;;;;;;4974755;28;58434;-71
2023/08/26 12:22:58;;;;;;;3.15;1.10;;;;;;;;;;4973837;28;58497;-71
2023/08/26 12:25:24;;;;;;;1.90;1.48;;;;;;;;;;4971827;28;58505;-71
2023/08/26 12:27:50;;;;;;;2.33;1.10;;;;;;;;;;4969676;28;58473;-71
2023/08/26 12:30:15;;;;;;;2.33;1.27;;;;;;;;;;4974955;28;58154;-71
2023/08/26 12:32:41;;;;;;;2.42;1.20;;;;;;;;;;4970054;28;58732;-71
2023/08/26 12:35:08;;;;;;;7.37;1.90;;;;;;;;;;4971496;28;59487;-71
2023/08/26 12:37:33;;;;;;;1.50;0.80;;;;;;;;;;4972263;28;58916;-71
2023/08/26 12:39:59;;;;;;;4.67;1.53;;;;;;;;;;4967243;28;58597;-71
2023/08/26 12:42:24;;;;;;;2.05;1.00;;;;;;;;;;4965351;28;58779;-72
2023/08/26 12:44:50;;;;;;;5.73;1.10;;;;;;;;;;4967087;28;59280;-71
2023/08/26 12:47:15;;;;;;;2.27;1.27;;;;;;;;;;4968415;28;58657;-71
2023/08/26 12:49:40;;;;;;;1.97;1.10;;;;;;;;;;4969135;28;61200;-70
2023/08/26 12:52:05;;;;;;;2.97;1.70;;;;;;;;;;4971637;28;58514;-70
2023/08/26 12:54:30;;;;;;;5.22;1.35;;;;;;;;;;4965792;28;60976;-71
2023/08/26 12:56:56;;;;;;;1.92;1.50;;;;;;;;;;4966270;28;59603;-72
2023/08/26 12:59:21;;;;;;;2.70;1.37;;;;;;;;;;4967858;28;58403;-72
2023/08/26 13:01:46;;;;;;;3.77;1.23;;;;;;;;;;4964642;28;58531;-71
2023/08/26 13:04:11;;;;;;;4.75;1.33;;;;;;;;;;4969137;28;60172;-70
2023/08/26 13:06:36;;;;;;;4.88;1.75;;;;;;;;;;4964659;28;58513;-72
2023/08/26 13:09:01;;;;;;;3.90;1.90;;;;;;;;;;4949527;28;59585;-71
2023/08/26 13:11:27;;;;;;;4.60;1.77;;;;;;;;;;4971501;28;59173;-71
2023/08/26 13:13:52;;;;;;;3.03;1.03;;;;;;;;;;4971823;28;58238;-70
2023/08/26 13:16:17;;;;;;;3.53;1.53;;;;;;;;;;4969834;28;59207;-74
2023/08/26 13:18:43;;;;;;;1.80;1.13;;;;;;;;;;4964434;28;58466;-72
2023/08/26 13:21:08;;;;;;;5.78;1.33;;;;;;;;;;4967793;28;59897;-73
2023/08/26 13:23:34;;;;;;;7.93;1.27;;;;;;;;;;4968207;28;58538;-70
2023/08/26 13:25:59;;;;;;;2.23;1.37;;;;;;;;;;4965391;28;58397;-70
2023/08/26 13:28:24;;;;;;;3.63;1.40;;;;;;;;;;4962536;28;58472;-70
2023/08/26 13:30:49;;;;;;;4.18;1.40;;;;;;;;;;4963381;28;59152;-72
2023/08/26 13:33:14;;;;;;;3.67;1.00;;;;;;;;;;4947667;28;58298;-71
2023/08/26 13:35:39;;;;;;;3.97;1.10;;;;;;;;;;4969701;28;60497;-71
2023/08/26 13:38:05;;;;;;;7.82;1.55;;;;;;;;;;4974534;28;58409;-71
2023/08/26 13:40:30;;;;;;;3.67;1.40;;;;;;;;;;4964614;28;60170;-71
2023/08/26 13:42:55;;;;;;;3.23;0.90;;;;;;;;;;4964260;28;59348;-70
2023/08/26 13:45:21;;;;;;;4.07;1.37;;;;;;;;;;4971007;28;58447;-73
2023/08/26 13:47:46;;;;;;;1.03;0.90;;;;;;;;;;4969843;28;60603;-72
2023/08/26 13:50:11;;;;;;;3.10;1.10;;;;;;;;;;4971714;28;58827;-71
2023/08/26 13:52:36;;;;;;;10.93;1.43;;;;;;;;;;4974548;28;58567;-71
2023/08/26 13:55:02;;;;;;;2.70;1.15;;;;;;;;;;4973957;28;58717;-72
2023/08/26 13:57:28;;;;;;;3.60;1.55;;;;;;;;;;4962903;28;60943;-72
2023/08/26 13:59:53;;;;;;;2.80;1.10;;;;;;;;;;4947896;28;58888;-72
2023/08/26 14:02:20;;;;;;;0.95;0.95;;;;;;;;;;4971681;28;58765;-73
2023/08/26 14:04:45;;;;;;;3.30;1.13;;;;;;;;;;4971369;28;58553;-72
2023/08/26 14:07:10;;;;;;;1.98;1.45;;;;;;;;;;4972349;28;59219;-73
2023/08/26 14:09:36;;;;;;;4.80;1.33;;;;;;;;;;4968553;28;58512;-73
2023/08/26 14:12:01;;;;;;;4.85;1.05;;;;;;;;;;4957550;28;58925;-72
2023/08/26 14:14:26;;;;;;;4.37;1.20;;;;;;;;;;4971306;28;60566;-68
2023/08/26 14:16:51;;;;;;;2.92;1.17;;;;;;;;;;4973932;28;58373;-73
2023/08/26 14:19:17;;;;;;;3.10;0.97;;;;;;;;;;4970867;28;58503;-72
2023/08/26 14:21:42;;;;;;;2.70;0.80;;;;;;;;;;4972284;28;58471;-73
2023/08/26 14:24:07;;;;;;;1.35;0.75;;;;;;;;;;4973888;28;58581;-72
2023/08/26 14:26:32;;;;;;;0.80;0.55;;;;;;;;;;4975456;28;59650;-71
2023/08/26 14:28:57;;;;;;;1.60;0.87;;;;;;;;;;4975430;28;59407;-71
2023/08/26 14:31:23;;;;;;;2.83;1.27;;;;;;;;;;4974047;28;58317;-72
2023/08/26 14:33:48;;;;;;;5.15;1.63;;;;;;;;;;4974005;28;59046;-72
2023/08/26 14:36:13;;;;;;;4.60;1.60;;;;;;;;;;4969928;28;58343;-72